createdAt,value
2018-10-06T00:01:18.347Z,14.33
2018-10-06T00:06:25.076Z,15.80
2018-10-06T00:11:29.049Z,18.47
2018-10-06T00:16:32.632Z,13.73
2018-10-06T00:21:36.230Z,16.70
2018-10-06T00:26:39.894Z,17.80
2018-10-06T00:31:44.487Z,18.80
2018-10-06T00:36:48.939Z,22.57
2018-10-06T00:41:52.759Z,20.83
2018-10-06T00:46:57.105Z,18.33
2018-10-06T00:52:01.028Z,18.30
2018-10-06T00:57:05.020Z,20.90
2018-10-06T01:02:08.622Z,21.97
2018-10-06T01:07:12.509Z,25.93
2018-10-06T01:12:23.922Z,22.20
2018-10-06T01:17:29.199Z,20.30
2018-10-06T01:22:33.087Z,21.53
2018-10-06T01:27:37.252Z,21.80
2018-10-06T01:32:40.816Z,21.13
2018-10-06T01:37:44.417Z,22.63
2018-10-06T01:42:48.694Z,22.30
2018-10-06T01:47:52.448Z,23.03
2018-10-06T01:52:56.103Z,21.57
2018-10-06T01:57:59.725Z,20.97
2018-10-06T02:03:03.345Z,22.30
2018-10-06T02:08:08.905Z,22.20
2018-10-06T02:13:12.517Z,24.20
2018-10-06T02:18:16.168Z,22.07
2018-10-06T02:23:20.752Z,22.43
2018-10-06T02:28:25.696Z,23.07
2018-10-06T02:33:29.255Z,22.33
2018-10-06T02:38:33.104Z,21.60
2018-10-06T02:43:36.731Z,21.87
2018-10-06T02:48:40.341Z,20.77
2018-10-06T02:53:44.664Z,20.30
2018-10-06T02:58:48.269Z,19.07
2018-10-06T03:03:51.538Z,20.90
2018-10-06T03:08:55.324Z,19.97
2018-10-06T03:13:58.564Z,19.70
2018-10-06T03:19:02.986Z,19.70
2018-10-06T03:24:06.410Z,21.27
2018-10-06T03:29:10.017Z,20.70
2018-10-06T03:34:13.627Z,20.07
2018-10-06T03:39:18.240Z,20.30
2018-10-06T03:44:21.855Z,20.37
2018-10-06T03:49:25.472Z,20.97
2018-10-06T03:54:29.064Z,21.00
2018-10-06T03:59:32.638Z,20.07
2018-10-06T04:04:36.279Z,19.27
2018-10-06T04:09:40.023Z,19.20
2018-10-06T04:14:44.976Z,20.10
2018-10-06T04:19:48.913Z,18.43
2018-10-06T04:24:52.528Z,17.83
2018-10-06T04:29:56.419Z,19.10
2018-10-06T04:35:00.912Z,18.37
2018-10-06T04:40:04.923Z,18.03
2018-10-06T04:45:08.953Z,18.47
2018-10-06T04:50:12.593Z,17.20
2018-10-06T04:55:16.204Z,17.33
2018-10-06T05:00:20.160Z,16.87
2018-10-06T05:05:24.192Z,16.10
2018-10-06T05:10:28.440Z,16.07
2018-10-06T05:15:33.399Z,17.40
2018-10-06T05:20:38.132Z,17.43
2018-10-06T05:25:42.261Z,19.17
2018-10-06T05:30:45.911Z,17.90
2018-10-06T05:35:49.587Z,20.00
2018-10-06T05:40:53.333Z,21.30
2018-10-06T05:45:57.078Z,23.60
2018-10-06T05:51:00.673Z,22.87
2018-10-06T05:56:04.782Z,22.90
2018-10-06T06:01:08.383Z,21.80
2018-10-06T06:06:12.124Z,22.10
2018-10-06T06:11:16.290Z,20.63
2018-10-06T06:16:19.887Z,20.97
2018-10-06T06:21:26.989Z,21.63
2018-10-06T06:26:33.301Z,21.50
2018-10-06T06:31:37.379Z,20.87
2018-10-06T06:36:41.239Z,21.13
2018-10-06T06:41:44.843Z,21.90
2018-10-06T06:46:48.603Z,21.97
2018-10-06T06:51:52.188Z,22.80
2018-10-06T06:56:56.465Z,24.80
2018-10-06T07:02:04.209Z,21.90
2018-10-06T07:07:07.987Z,23.40
2018-10-06T07:12:11.579Z,24.87
2018-10-06T07:17:15.201Z,24.50
2018-10-06T07:22:18.861Z,24.70
2018-10-06T07:27:22.463Z,25.07
2018-10-06T07:32:26.290Z,24.07
2018-10-06T07:37:29.891Z,27.13
2018-10-06T07:42:33.608Z,27.33
2018-10-06T07:47:37.217Z,22.43
2018-10-06T07:52:40.788Z,21.93
2018-10-06T07:57:45.047Z,20.90
2018-10-06T08:02:48.628Z,19.97
2018-10-06T08:07:52.231Z,20.87
2018-10-06T08:12:56.340Z,21.90
2018-10-06T08:17:59.949Z,21.10
2018-10-06T08:23:03.869Z,27.67
2018-10-06T08:28:07.513Z,21.50
2018-10-06T08:33:11.138Z,19.60
2018-10-06T08:38:14.747Z,21.10
2018-10-06T08:43:18.394Z,20.83
2018-10-06T08:48:22.062Z,23.73
2018-10-06T08:53:25.697Z,25.80
2018-10-06T08:58:29.983Z,24.07
2018-10-06T09:03:35.609Z,20.47
2018-10-06T09:08:41.351Z,19.60
2018-10-06T09:13:44.962Z,16.73
2018-10-06T09:18:48.572Z,16.87
2018-10-06T09:23:52.211Z,17.33
2018-10-06T09:28:56.346Z,16.60
2018-10-06T09:34:00.593Z,16.80
2018-10-06T09:39:05.863Z,16.97
2018-10-06T09:44:09.588Z,16.20
2018-10-06T09:49:14.499Z,15.30
2018-10-06T09:54:18.125Z,12.90
2018-10-06T09:59:21.771Z,13.63
2018-10-06T10:09:33.704Z,11.87
2018-10-06T10:14:37.389Z,15.23
2018-10-06T10:19:41.053Z,13.53
2018-10-06T10:24:45.644Z,19.27
2018-10-06T10:29:49.271Z,14.67
2018-10-06T10:34:53.057Z,12.17
2018-10-06T10:39:56.656Z,13.20
2018-10-06T10:45:00.500Z,11.67
2018-10-06T10:50:04.335Z,12.90
2018-10-06T10:55:08.233Z,13.17
2018-10-06T11:00:11.909Z,12.40
2018-10-06T11:05:15.936Z,13.03
2018-10-06T11:10:25.211Z,13.50
2018-10-06T11:15:28.863Z,13.10
2018-10-06T11:20:32.539Z,13.93
2018-10-06T11:25:36.383Z,13.90
2018-10-06T11:30:42.809Z,13.50
2018-10-06T11:35:46.488Z,14.30
2018-10-06T11:40:53.125Z,13.37
2018-10-06T11:45:57.355Z,13.20
2018-10-06T11:51:00.975Z,12.87
2018-10-06T11:56:04.591Z,11.30
2018-10-06T12:01:07.862Z,12.00
2018-10-06T12:06:11.242Z,10.10
2018-10-06T12:11:15.425Z,10.60
2018-10-06T12:16:19.123Z,10.17
2018-10-06T12:21:22.776Z,9.57
2018-10-06T12:26:26.700Z,10.17
2018-10-06T12:31:30.444Z,9.70
2018-10-06T12:36:34.105Z,10.60
2018-10-06T12:41:38.147Z,9.47
2018-10-06T12:46:42.684Z,10.30
2018-10-06T12:51:46.301Z,9.10
2018-10-06T12:56:50.142Z,9.50
2018-10-06T13:01:53.795Z,10.00
2018-10-06T13:06:58.010Z,10.03
2018-10-06T13:12:01.651Z,12.63
2018-10-06T13:17:05.452Z,12.00
2018-10-06T13:22:09.398Z,10.50
2018-10-06T13:27:13.052Z,12.10
2018-10-06T13:32:17.424Z,11.90
2018-10-06T13:37:21.173Z,11.90
2018-10-06T13:42:24.559Z,10.50
2018-10-06T13:47:28.236Z,9.53
2018-10-06T13:52:31.932Z,10.40
2018-10-06T13:57:35.614Z,9.90
2018-10-06T14:02:41.605Z,9.90
2018-10-06T14:07:45.667Z,9.80
2018-10-06T14:12:49.508Z,8.73
2018-10-06T14:17:53.134Z,9.83
2018-10-06T14:22:56.788Z,12.63
2018-10-06T14:28:00.455Z,12.10
2018-10-06T14:33:04.810Z,11.37
2018-10-06T14:38:08.416Z,12.20
2018-10-06T14:43:12.851Z,13.17
2018-10-06T14:48:16.773Z,12.17
2018-10-06T14:53:23.862Z,13.40
2018-10-06T14:58:27.549Z,11.50
2018-10-06T15:03:31.964Z,10.80
2018-10-06T15:08:36.685Z,11.20
2018-10-06T15:13:40.310Z,11.47
2018-10-06T15:18:43.981Z,11.80
2018-10-06T15:23:48.316Z,10.97
2018-10-06T15:28:52.357Z,11.43
2018-10-06T15:33:56.366Z,11.13
2018-10-06T15:38:59.648Z,10.83
2018-10-06T15:44:03.604Z,10.70
2018-10-06T15:49:07.540Z,10.80
2018-10-06T15:54:10.880Z,11.23
2018-10-06T15:59:15.352Z,11.90
2018-10-06T16:04:19.513Z,11.27
2018-10-06T16:09:23.131Z,10.90
2018-10-06T16:14:27.065Z,10.67
2018-10-06T16:19:30.356Z,10.00
2018-10-06T16:24:33.639Z,10.33
2018-10-06T16:29:37.248Z,13.93
2018-10-06T16:34:40.905Z,12.10
2018-10-06T16:39:44.618Z,10.50
2018-10-06T16:44:48.209Z,9.17
2018-10-06T16:49:51.828Z,9.70
2018-10-06T16:54:56.336Z,8.47
2018-10-06T17:00:02.104Z,9.03
2018-10-06T17:05:07.168Z,8.00
2018-10-06T17:10:10.467Z,8.23
2018-10-06T17:15:15.863Z,8.20
2018-10-06T17:20:19.530Z,9.00
2018-10-06T17:25:23.230Z,9.43
2018-10-06T17:30:26.841Z,9.03
2018-10-06T17:35:30.527Z,13.87
2018-10-06T17:40:34.326Z,18.83
2018-10-06T17:45:38.984Z,22.73
2018-10-06T17:50:42.749Z,16.53
2018-10-06T17:55:46.257Z,16.13
2018-10-06T18:00:49.961Z,15.53
2018-10-06T18:05:54.136Z,10.30
2018-10-06T18:10:57.812Z,15.20
2018-10-06T18:16:01.540Z,8.70
2018-10-06T18:21:05.512Z,8.50
2018-10-06T18:26:10.210Z,11.20
2018-10-06T18:31:14.971Z,9.40
2018-10-06T18:36:18.670Z,8.73
2018-10-06T18:41:21.959Z,9.07
2018-10-06T18:46:26.399Z,10.03
2018-10-06T18:51:29.985Z,9.10
2018-10-06T18:56:33.769Z,10.27
2018-10-06T19:01:37.376Z,8.10
2018-10-06T19:06:40.763Z,8.37
2018-10-06T19:11:45.164Z,10.60
2018-10-06T19:16:48.863Z,10.43
2018-10-06T19:21:52.519Z,9.60
2018-10-06T19:26:56.474Z,9.10
2018-10-06T19:32:00.844Z,9.13
2018-10-06T19:37:04.688Z,8.00
2018-10-06T19:42:08.352Z,10.10
2018-10-06T19:47:11.983Z,10.00
2018-10-06T19:52:15.579Z,10.07
2018-10-06T19:57:21.392Z,17.47
2018-10-06T20:02:27.993Z,13.03
2018-10-06T20:07:31.808Z,9.80
2018-10-06T20:12:35.408Z,8.93
2018-10-06T20:17:39.145Z,8.03
2018-10-06T20:22:42.782Z,9.17
2018-10-06T20:27:47.171Z,8.73
2018-10-06T20:32:50.851Z,8.80
2018-10-06T20:37:54.460Z,10.80
2018-10-06T20:42:58.140Z,10.50
2018-10-06T20:48:03.096Z,10.33
2018-10-06T20:53:06.825Z,14.40
2018-10-06T20:58:10.109Z,15.90
2018-10-06T21:03:15.061Z,15.57
2018-10-06T21:08:20.758Z,10.43
2018-10-06T21:13:24.589Z,9.67
2018-10-06T21:18:28.363Z,12.30
2018-10-06T21:23:31.956Z,12.30
2018-10-06T21:28:36.009Z,12.30
2018-10-06T21:33:39.652Z,12.63
2018-10-06T21:38:43.280Z,9.70
2018-10-06T21:43:48.350Z,11.50
2018-10-06T21:48:52.148Z,9.87
2018-10-06T21:53:55.731Z,10.23
2018-10-06T21:58:59.481Z,10.87
2018-10-06T22:04:03.360Z,12.40
2018-10-06T22:09:06.931Z,11.40
2018-10-06T22:14:10.185Z,12.23
2018-10-06T22:19:14.192Z,13.13
2018-10-06T22:24:17.920Z,13.47
2018-10-06T22:29:21.637Z,13.40
2018-10-06T22:34:25.215Z,13.37
2018-10-06T22:39:29.273Z,13.17
2018-10-06T22:44:32.980Z,11.63
2018-10-06T22:49:36.659Z,9.47
2018-10-06T22:54:40.727Z,9.20
2018-10-06T22:59:44.374Z,9.07
2018-10-06T23:04:48.100Z,9.90
2018-10-06T23:09:52.440Z,10.57
2018-10-06T23:14:56.056Z,8.60
2018-10-06T23:20:00.703Z,8.93
2018-10-06T23:25:04.322Z,8.90
2018-10-06T23:30:08.461Z,9.00
2018-10-06T23:35:12.587Z,9.90
2018-10-06T23:40:16.200Z,9.17
2018-10-06T23:45:20.628Z,8.27
2018-10-06T23:50:25.229Z,9.97
2018-10-06T23:55:29.329Z,9.47
